Time;durP1;ratioP1;P1;durP2;ratioP2;P2;SDS_P1;SDS_P2;PMS_P1;PMS_P2;Temp;Humidity;BMP_temperature;BMP_pressure;BME280_temperature;BME280_humidity;BME280_pressure;Samples;Min_cycle;Max_cycle;Signal;HPM_P1;HPM_P2
2022/09/07 00:00:03;;;;;;;;;;;;;;;16.15;57.31;101348.47;4879834;29;1969;-51
2022/09/07 00:02:29;;;;;;;;;;;;;;;16.06;56.99;101346.19;4883294;29;953;-52
2022/09/07 00:04:55;;;;;;;;;;;;;;;16.00;57.00;101349.94;4883576;29;977;-49
2022/09/07 00:07:20;;;;;;;;;;;;;;;16.18;57.11;101347.97;4880304;29;1112;-50
2022/09/07 00:09:46;;;;;;;;;;;;;;;17.44;56.54;101340.28;4883307;29;993;-49
2022/09/07 00:12:11;;;;;;;;;;;;;;;16.70;57.88;101344.63;4883222;29;1100;-52
2022/09/07 00:14:37;;;;;;;;;;;;;;;16.42;57.71;101349.34;4883592;29;966;-48
2022/09/07 00:17:02;;;;;;;;;;;;;;;16.25;57.53;101340.34;4883177;29;1195;-50
2022/09/07 00:19:28;;;;;;;;;;;;;;;16.17;57.54;101343.53;4877325;29;1037;-50
2022/09/07 00:21:53;;;;;;;;;;;;;;;16.13;57.10;101342.41;4870651;29;1907;-47
2022/09/07 00:24:19;;;;;;;;;;;;;;;16.68;57.44;101333.09;4883029;29;1075;-51
2022/09/07 00:26:44;;;;;;;;;;;;;;;17.33;56.72;101338.56;4883189;29;953;-47
2022/09/07 00:29:10;;;;;;;;;;;;;;;16.68;57.74;101344.09;4883049;29;1032;-50
2022/09/07 00:31:35;;;;;;;;;;;;;;;16.43;57.89;101345.47;4876334;29;1246;-50
2022/09/07 00:34:01;;;;;;;;;;;;;;;16.31;57.59;101342.06;4883503;29;1024;-48
2022/09/07 00:36:27;;;;;;;;;;;;;;;16.19;57.34;101339.47;4882837;29;1053;-51
2022/09/07 00:38:52;;;;;;;;;;;;;;;16.08;57.14;101335.75;4883084;29;989;-50
2022/09/07 00:41:18;;;;;;;;;;;;;;;16.02;56.95;101342.28;4882608;29;1981;-50
2022/09/07 00:43:44;;;;;;;;;;;;;;;17.31;56.86;101335.28;4873393;29;814;-51
2022/09/07 00:46:15;;;;;;;;;;;;;;;17.10;57.19;101340.63;4876994;29;1085;-45
2022/09/07 00:48:47;;;;;;;;;;;;;;;16.58;57.86;101330.28;4865012;29;1092;-50
2022/09/07 00:51:17;;;;;;;;;;;;;;;16.44;57.66;101338.09;4876372;29;1187;-47
2022/09/07 00:53:47;;;;;;;;;;;;;;;16.29;57.47;101336.00;4882399;29;1080;-51
2022/09/07 00:56:13;;;;;;;;;;;;;;;16.20;57.34;101340.28;4876870;29;1057;-51
2022/09/07 00:58:39;;;;;;;;;;;;;;;16.09;56.93;101333.88;4881455;29;1180;-51
2022/09/07 01:01:04;;;;;;;;;;;;;;;16.02;56.85;101339.53;4882277;29;1978;-49
2022/09/07 01:03:32;;;;;;;;;;;;;;;15.93;57.09;101341.06;4882369;29;1016;-50
2022/09/07 01:05:59;;;;;;;;;;;;;;;15.97;56.47;101336.72;4882077;29;1004;-50
2022/09/07 01:08:25;;;;;;;;;;;;;;;16.67;57.25;101331.44;4881441;29;930;-49
2022/09/07 01:10:50;;;;;;;;;;;;;;;17.44;56.64;101333.97;4881060;29;1085;-48
2022/09/07 01:13:16;;;;;;;;;;;;;;;16.67;57.94;101325.94;4879888;29;1017;-49
2022/09/07 01:16:04;;;;;;;;;;;;;;;16.41;57.74;101335.84;4881044;29;1223;-49
2022/09/07 01:18:38;;;;;;;;;;;;;;;16.27;57.54;101331.84;4882546;29;1063;-48
2022/09/07 01:21:22;;;;;;;;;;;;;;;16.19;56.99;101338.66;4870111;29;1907;-49
2022/09/07 01:23:58;;;;;;;;;;;;;;;16.05;57.02;101330.81;4875906;29;903;-51
2022/09/07 01:26:32;;;;;;;;;;;;;;;15.92;57.07;101336.66;4879971;29;974;-49
2022/09/07 01:29:01;;;;;;;;;;;;;;;17.17;57.11;101331.34;4874809;29;989;-48
2022/09/07 01:31:37;;;;;;;;;;;;;;;16.91;57.36;101333.88;4881412;29;1220;-49
2022/09/07 01:34:10;;;;;;;;;;;;;;;16.48;57.68;101333.75;4881210;29;977;-51
2022/09/07 01:36:41;;;;;;;;;;;;;;;16.29;57.45;101327.78;4881012;29;1025;-48
2022/09/07 01:39:07;;;;;;;;;;;;;;;16.19;57.27;101330.41;4882196;29;1055;-51
2022/09/07 01:41:41;;;;;;;;;;;;;;;17.16;56.99;101318.69;4882205;29;1973;-51
2022/09/07 01:44:09;;;;;;;;;;;;;;;16.84;57.82;101327.75;4879167;29;951;-49
2022/09/07 01:46:38;;;;;;;;;;;;;;;16.52;57.65;101332.13;4881959;29;1131;-50
2022/09/07 01:49:10;;;;;;;;;;;;;;;16.31;57.50;101328.31;4868876;29;1006;-50
2022/09/07 01:51:36;;;;;;;;;;;;;;;16.23;57.28;101326.06;4877330;29;1180;-50
2022/09/07 01:54:05;;;;;;;;;;;;;;;16.18;57.38;101328.75;4870803;29;1001;-50
2022/09/07 01:56:32;;;;;;;;;;;;;;;17.43;56.50;101326.81;4881226;29;891;-48
2022/09/07 01:58:59;;;;;;;;;;;;;;;16.70;57.72;101325.41;4875061;29;1100;-52
2022/09/07 02:01:27;;;;;;;;;;;;;;;16.45;57.87;101327.94;4881583;29;1968;-50
2022/09/07 02:04:03;;;;;;;;;;;;;;;16.34;57.09;101327.00;4881135;29;1115;-48
2022/09/07 02:06:41;;;;;;;;;;;;;;;16.18;57.20;101324.06;4881456;29;1036;-52
2022/09/07 02:09:09;;;;;;;;;;;;;;;16.10;57.13;101316.31;4876615;29;974;-52
2022/09/07 02:11:36;;;;;;;;;;;;;;;16.01;56.74;101309.63;4881587;29;1009;-51
2022/09/07 02:14:07;;;;;;;;;;;;;;;15.92;56.79;101320.22;4883935;29;1277;-49
2022/09/07 02:16:32;;;;;;;;;;;;;;;17.30;56.69;101311.63;4884454;29;1036;-50
2022/09/07 02:19:00;;;;;;;;;;;;;;;16.68;57.72;101318.56;4882538;29;1222;-50
2022/09/07 02:21:28;;;;;;;;;;;;;;;16.33;57.86;101320.69;4874334;29;1903;-50
2022/09/07 02:23:55;;;;;;;;;;;;;;;16.17;57.67;101316.97;4885740;29;1218;-51
2022/09/07 02:26:21;;;;;;;;;;;;;;;16.10;57.03;101315.47;4882837;29;975;-49
2022/09/07 02:28:46;;;;;;;;;;;;;;;16.01;57.07;101313.19;4884060;29;1096;-49
2022/09/07 02:31:12;;;;;;;;;;;;;;;15.90;57.04;101308.69;4885203;29;1219;-53
2022/09/07 02:33:38;;;;;;;;;;;;;;;15.90;56.66;101314.16;4884415;29;982;-45
2022/09/07 02:36:03;;;;;;;;;;;;;;;17.19;56.62;101313.47;4884904;29;1219;-51
2022/09/07 02:38:29;;;;;;;;;;;;;;;16.92;57.31;101319.88;4872914;29;1022;-50
2022/09/07 02:40:55;;;;;;;;;;;;;;;16.43;57.77;101312.53;4885106;29;1899;-48
2022/09/07 02:43:21;;;;;;;;;;;;;;;16.26;57.70;101317.31;4884826;29;954;-49
2022/09/07 02:45:57;;;;;;;;;;;;;;;16.16;57.16;101320.78;4884781;29;1075;-49
2022/09/07 02:48:38;;;;;;;;;;;;;;;16.05;57.05;101319.00;4884588;29;1156;-49
2022/09/07 02:51:13;;;;;;;;;;;;;;;16.13;57.53;101321.31;4884880;29;1009;-52
2022/09/07 02:53:46;;;;;;;;;;;;;;;17.64;55.97;101319.50;4883975;29;1183;-47
2022/09/07 02:56:23;;;;;;;;;;;;;;;16.79;57.74;101313.94;4875534;29;1059;-50
2022/09/07 02:58:58;;;;;;;;;;;;;;;16.50;57.72;101322.50;4884088;29;1211;-49
2022/09/07 03:01:29;;;;;;;;;;;;;;;16.37;57.20;101316.34;4884824;29;1955;-50
2022/09/07 03:04:01;;;;;;;;;;;;;;;16.21;56.98;101315.31;4884903;29;1147;-49
2022/09/07 03:06:31;;;;;;;;;;;;;;;16.09;57.23;101314.66;4876854;29;994;-49
2022/09/07 03:08:57;;;;;;;;;;;;;;;17.20;56.90;101304.13;4875780;29;1155;-50
2022/09/07 03:11:22;;;;;;;;;;;;;;;16.80;57.67;101315.63;4875804;29;1202;-48
2022/09/07 03:13:48;;;;;;;;;;;;;;;16.46;57.69;101318.63;4878548;29;1017;-52
2022/09/07 03:16:13;;;;;;;;;;;;;;;16.28;57.59;101322.53;4884227;29;1037;-51
2022/09/07 03:18:39;;;;;;;;;;;;;;;16.18;57.41;101324.06;4884247;29;1139;-52
2022/09/07 03:21:04;;;;;;;;;;;;;;;16.10;57.27;101324.53;4879043;29;1974;-51
2022/09/07 03:23:30;;;;;;;;;;;;;;;16.05;57.00;101330.81;4884349;29;1138;-49
2022/09/07 03:25:55;;;;;;;;;;;;;;;15.92;57.08;101317.47;4884136;29;1222;-50
2022/09/07 03:28:20;;;;;;;;;;;;;;;17.35;56.66;101328.16;4874244;29;1060;-45
2022/09/07 03:30:46;;;;;;;;;;;;;;;16.66;57.74;101323.47;4881109;29;1119;-49
2022/09/07 03:33:14;;;;;;;;;;;;;;;16.35;57.94;101332.22;4877989;29;879;-52
2022/09/07 03:35:41;;;;;;;;;;;;;;;16.21;57.59;101328.22;4879722;29;970;-50
2022/09/07 03:38:07;;;;;;;;;;;;;;;16.08;57.22;101324.78;4883843;29;1068;-50
2022/09/07 03:40:32;;;;;;;;;;;;;;;15.99;57.33;101331.84;4882262;29;1972;-52
2022/09/07 03:42:57;;;;;;;;;;;;;;;16.58;57.82;101333.00;4875920;29;1274;-52
2022/09/07 03:45:23;;;;;;;;;;;;;;;17.40;56.60;101327.34;4880028;29;895;-51
2022/09/07 03:47:49;;;;;;;;;;;;;;;16.67;57.70;101325.94;4877629;29;1191;-48
2022/09/07 03:50:15;;;;;;;;;;;;;;;16.39;57.88;101338.84;4876863;29;1054;-50
2022/09/07 03:52:40;;;;;;;;;;;;;;;16.25;57.58;101334.84;4883429;29;1478;-52
2022/09/07 03:55:06;;;;;;;;;;;;;;;16.20;57.10;101337.53;4883932;29;966;-50
2022/09/07 03:57:31;;;;;;;;;;;;;;;16.08;56.96;101332.22;4878476;29;1270;-52
2022/09/07 03:59:57;;;;;;;;;;;;;;;16.03;56.98;101343.97;4877896;29;1907;-47
2022/09/07 04:02:22;;;;;;;;;;;;;;;16.40;57.56;101337.75;4878254;29;997;-52
2022/09/07 04:04:48;;;;;;;;;;;;;;;17.56;56.47;101342.03;4870760;29;1029;-52
2022/09/07 04:07:13;;;;;;;;;;;;;;;16.73;57.97;101346.88;4874445;29;977;-52
2022/09/07 04:09:39;;;;;;;;;;;;;;;16.43;58.01;101350.97;4875867;29;907;-47
2022/09/07 04:12:04;;;;;;;;;;;;;;;16.32;57.52;101346.47;4877544;29;1009;-49
2022/09/07 04:14:30;;;;;;;;;;;;;;;16.13;57.58;101358.88;4875735;29;1017;-50
2022/09/07 04:16:55;;;;;;;;;;;;;;;16.08;57.46;101343.19;4881563;29;1001;-48
2022/09/07 04:19:21;;;;;;;;;;;;;;;16.71;58.01;101348.22;4878881;29;1127;-52
2022/09/07 04:21:46;;;;;;;;;;;;;;;17.02;57.81;101354.84;4876869;29;2063;-53
2022/09/07 04:24:12;;;;;;;;;;;;;;;16.51;58.17;101348.84;4882271;29;1182;-52
2022/09/07 04:26:38;;;;;;;;;;;;;;;16.29;57.91;101346.97;4880105;29;977;-50
2022/09/07 04:29:04;;;;;;;;;;;;;;;16.18;57.57;101343.28;4871833;29;1021;-51
2022/09/07 04:31:29;;;;;;;;;;;;;;;16.13;57.58;101358.88;4866974;29;1179;-51
2022/09/07 04:33:55;;;;;;;;;;;;;;;16.03;57.19;101362.31;4876693;29;899;-51
2022/09/07 04:36:20;;;;;;;;;;;;;;;15.96;57.21;101362.50;4880682;29;1171;-51
2022/09/07 04:38:46;;;;;;;;;;;;;;;16.77;57.91;101364.50;4875800;29;1005;-51
2022/09/07 04:41:12;;;;;;;;;;;;;;;17.04;57.75;101360.91;4871118;29;1986;-56
2022/09/07 04:43:37;;;;;;;;;;;;;;;16.51;58.13;101362.56;4872526;29;1032;-52
2022/09/07 04:46:06;;;;;;;;;;;;;;;16.31;58.03;101365.94;4876208;29;859;-54
2022/09/07 04:48:32;;;;;;;;;;;;;;;16.17;58.06;101360.00;4874077;29;1579;-54
2022/09/07 04:51:04;;;;;;;;;;;;;;;16.11;57.65;101361.03;4878854;29;988;-52
2022/09/07 04:53:30;;;;;;;;;;;;;;;16.02;57.49;101358.75;4876907;29;1159;-51
2022/09/07 04:55:56;;;;;;;;;;;;;;;16.66;57.85;101361.91;4879695;29;1037;-56
2022/09/07 04:58:26;;;;;;;;;;;;;;;17.30;57.32;101361.09;5110526;27;1341;-56
2022/09/07 05:00:52;;;;;;;;;;;;;;;16.61;58.37;101359.94;5105211;28;984;-55
2022/09/07 05:03:17;;;;;;;;;;;;;;;16.40;58.25;101356.97;5093940;28;1218;-52
2022/09/07 05:05:43;;;;;;;;;;;;;;;16.27;57.73;101365.63;5094707;28;957;-56
2022/09/07 05:08:09;;;;;;;;;;;;;;;16.18;57.49;101369.91;5093678;28;961;-55
2022/09/07 05:10:35;;;;;;;;;;;;;;;16.11;57.21;101367.34;5099034;28;1008;-53
2022/09/07 05:13:01;;;;;;;;;;;;;;;16.03;57.31;101382.38;5093558;28;1067;-54
2022/09/07 05:15:27;;;;;;;;;;;;;;;15.96;57.07;101370.72;5096700;28;1086;-52
2022/09/07 05:17:53;;;;;;;;;;;;;;;16.51;58.07;101379.03;5093615;28;1909;-54
2022/09/07 05:20:19;;;;;;;;;;;;;;;17.33;57.16;101378.97;5093743;28;1079;-54
2022/09/07 05:22:45;;;;;;;;;;;;;;;16.58;58.28;101377.75;5105254;28;1058;-54
2022/09/07 05:25:10;;;;;;;;;;;;;;;16.35;58.19;101384.38;5093248;28;1045;-53
2022/09/07 05:27:36;;;;;;;;;;;;;;;16.29;57.84;101377.16;5093271;28;1127;-55
2022/09/07 05:30:01;;;;;;;;;;;;;;;16.18;57.52;101380.88;5093714;28;989;-53
2022/09/07 05:32:27;;;;;;;;;;;;;;;16.12;57.66;101377.25;5092575;28;992;-54
2022/09/07 05:34:52;;;;;;;;;;;;;;;16.37;58.01;101382.22;5105386;28;1183;-54
2022/09/07 05:37:18;;;;;;;;;;;;;;;17.53;56.83;101381.88;5094030;28;1913;-53
2022/09/07 05:39:43;;;;;;;;;;;;;;;16.81;58.07;101386.75;5092982;28;1183;-53
2022/09/07 05:42:08;;;;;;;;;;;;;;;16.88;58.67;101383.81;5092882;28;945;-53
2022/09/07 05:44:34;;;;;;;;;;;;;;;17.18;56.54;101385.19;5094367;28;1059;-52
2022/09/07 05:46:59;;;;;;;;;;;;;;;16.61;54.91;101376.41;5092963;28;989;-53
2022/09/07 05:49:25;;;;;;;;;;;;;;;16.45;53.13;101380.91;5093304;28;1028;-53
2022/09/07 05:51:50;;;;;;;;;;;;;;;16.96;54.92;101371.53;5093000;28;1159;-53
2022/09/07 05:54:16;;;;;;;;;;;;;;;16.58;53.29;101382.44;5093325;28;1088;-54
2022/09/07 05:56:42;;;;;;;;;;;;;;;16.54;51.74;101378.53;5092154;28;1914;-53
2022/09/07 05:59:07;;;;;;;;;;;;;;;16.45;50.74;101389.13;5085974;28;1036;-51
2022/09/07 06:01:34;;;;;;;;;;;;;;;16.38;50.22;101385.78;5093150;28;1021;-53
2022/09/07 06:04:00;;;;;;;;;;;;;;;17.21;52.75;101377.25;5092323;28;961;-54
2022/09/07 06:06:25;;;;;;;;;;;;;;;16.64;52.62;101392.38;5099864;28;968;-53
2022/09/07 06:08:51;;;;;;;;;;;;;;;16.54;51.20;101382.09;5084622;28;953;-53
2022/09/07 06:11:18;;;;;;;;;;;;;;;16.43;50.46;101383.09;5087277;28;1023;-53
2022/09/07 06:13:43;;;;;;;;;;;;;;;16.33;49.82;101389.28;5081133;28;981;-53
2022/09/07 06:16:10;;;;;;;;;;;;;;;17.13;51.44;101387.91;5079384;28;1989;-54
2022/09/07 06:18:36;;;;;;;;;;;;;;;16.67;51.36;101386.34;5089441;28;1021;-55
2022/09/07 06:21:02;;;;;;;;;;;;;;;16.49;50.28;101379.31;5082165;28;1078;-53
2022/09/07 06:23:28;;;;;;;;;;;;;;;17.48;51.54;101394.78;5086280;28;984;-53
2022/09/07 06:25:54;;;;;;;;;;;;;;;16.79;51.62;101393.59;5078680;28;1140;-53
2022/09/07 06:28:19;;;;;;;;;;;;;;;16.64;50.82;101395.13;5079055;28;1052;-52
2022/09/07 06:30:45;;;;;;;;;;;;;;;17.39;51.56;101395.25;5078811;28;981;-53
2022/09/07 06:33:10;;;;;;;;;;;;;;;16.87;51.34;101401.38;5080050;28;1123;-52
2022/09/07 06:35:36;;;;;;;;;;;;;;;16.69;50.50;101400.66;5088419;28;1397;-54
2022/09/07 06:38:01;;;;;;;;;;;;;;;16.72;50.04;101402.06;5080129;28;1953;-51
2022/09/07 06:40:27;;;;;;;;;;;;;;;17.20;51.05;101399.50;5090198;28;1055;-52
2022/09/07 06:42:52;;;;;;;;;;;;;;;16.82;50.62;101404.91;5078935;28;1028;-53
2022/09/07 06:45:18;;;;;;;;;;;;;;;17.39;51.32;101392.50;5078572;28;1036;-51
2022/09/07 06:47:43;;;;;;;;;;;;;;;17.18;51.57;101398.94;5086225;28;972;-55
2022/09/07 06:50:09;;;;;;;;;;;;;;;16.91;50.88;101408.03;5078521;28;1087;-52
2022/09/07 06:52:36;;;;;;;;;;;;;;;16.79;50.06;101401.84;5088270;28;985;-54
2022/09/07 06:55:01;;;;;;;;;;;;;;;16.84;49.13;101408.22;5078026;28;1083;-53
2022/09/07 06:57:27;;;;;;;;;;;;;;;17.58;50.18;101405.81;5088515;28;1981;-54
2022/09/07 06:59:52;;;;;;;;;;;;;;;17.02;50.28;101412.53;5078159;28;1025;-52
2022/09/07 07:02:18;;;;;;;;;;;;;;;16.85;49.84;101403.56;5078281;28;985;-53
2022/09/07 07:04:45;;;;;;;;;;;;;;;16.69;49.39;101411.66;5078130;28;1032;-54
2022/09/07 07:07:11;;;;;;;;;;;;;;;16.62;48.92;101405.53;5078281;28;1131;-52
2022/09/07 07:09:37;;;;;;;;;;;;;;;16.62;48.52;101401.94;5081841;28;974;-55
2022/09/07 07:12:02;;;;;;;;;;;;;;;16.55;48.39;101410.38;5081210;28;976;-55
2022/09/07 07:14:28;;;;;;;;;;;;;;;16.56;47.97;101406.56;5079305;28;1032;-51
2022/09/07 07:16:53;;;;;;;;;;;;;;;17.03;48.98;101405.13;5077775;28;1905;-51
2022/09/07 07:19:19;;;;;;;;;;;;;;;16.84;50.03;101401.91;5078029;28;1131;-50
2022/09/07 07:21:44;;;;;;;;;;;;;;;16.71;49.38;101397.66;5079519;28;1467;-56
2022/09/07 07:24:10;;;;;;;;;;;;;;;16.70;48.54;101402.31;5081860;28;1007;-52
2022/09/07 07:26:35;;;;;;;;;;;;;;;16.70;48.02;101399.56;5078847;28;885;-51
2022/09/07 07:29:00;;;;;;;;;;;;;;;16.58;48.18;101398.91;5077884;28;977;-47
2022/09/07 07:31:26;;;;;;;;;;;;;;;16.52;47.89;101405.41;5077530;28;1198;-49
2022/09/07 07:33:52;;;;;;;;;;;;;;;17.33;49.03;101404.53;5078380;28;1088;-52
2022/09/07 07:36:21;;;;;;;;;;;;;;;16.95;49.13;101398.19;5081264;28;1976;-50
2022/09/07 07:38:47;;;;;;;;;;;;;;;16.71;48.88;101398.47;5077325;28;1033;-49
2022/09/07 07:41:12;;;;;;;;;;;;;;;16.71;48.41;101403.16;5077665;28;1202;-49
2022/09/07 07:43:38;;;;;;;;;;;;;;;16.64;48.14;101405.28;5077901;28;993;-51
2022/09/07 07:46:03;;;;;;;;;;;;;;;17.42;49.24;101396.66;5083454;28;981;-50
2022/09/07 07:48:30;;;;;;;;;;;;;;;16.97;49.82;101404.25;5075803;28;1139;-53
2022/09/07 07:51:05;;;;;;;;;;;;;;;16.80;49.06;101387.03;5077085;28;1003;-53
2022/09/07 07:53:34;;;;;;;;;;;;;;;17.74;49.57;101392.97;5086647;28;1096;-48
2022/09/07 07:56:00;;;;;;;;;;;;;;;17.08;50.13;101391.44;5076812;28;997;-52
2022/09/07 07:58:26;;;;;;;;;;;;;;;16.83;49.35;101386.50;5080991;28;1980;-51
2022/09/07 08:00:51;;;;;;;;;;;;;;;16.86;48.71;101391.50;5076942;28;1029;-51
2022/09/07 08:03:17;;;;;;;;;;;;;;;17.58;49.49;101379.13;5095179;28;1004;-48
2022/09/07 08:05:42;;;;;;;;;;;;;;;17.02;49.94;101376.00;5076944;28;1024;-51
2022/09/07 08:08:10;;;;;;;;;;;;;;;17.02;49.20;101385.06;5076692;28;957;-51
2022/09/07 08:10:35;;;;;;;;;;;;;;;16.82;48.87;101373.88;5073651;28;946;-48
2022/09/07 08:13:00;;;;;;;;;;;;;;;16.87;48.07;101382.16;5076111;28;1020;-53
2022/09/07 08:15:26;;;;;;;;;;;;;;;17.60;48.98;101376.97;5073619;28;944;-51
2022/09/07 08:17:51;;;;;;;;;;;;;;;17.10;49.70;101378.25;5076407;28;1914;-51
2022/09/07 08:20:17;;;;;;;;;;;;;;;16.97;48.95;101376.78;5076960;28;993;-52
2022/09/07 08:22:43;;;;;;;;;;;;;;;16.91;48.61;101375.06;5077805;28;854;-57
2022/09/07 08:25:08;;;;;;;;;;;;;;;16.83;48.31;101378.25;5076563;28;1088;-55
2022/09/07 08:27:34;;;;;;;;;;;;;;;16.83;47.89;101378.25;5085991;28;965;-53
2022/09/07 08:29:59;;;;;;;;;;;;;;;16.77;47.61;101372.75;5073024;28;957;-52
2022/09/07 08:32:25;;;;;;;;;;;;;;;17.44;49.11;101384.28;5076553;28;1063;-54
2022/09/07 08:34:51;;;;;;;;;;;;;;;16.98;49.16;101380.34;5076959;28;1127;-53
2022/09/07 08:37:16;;;;;;;;;;;;;;;16.90;48.64;101379.75;5076088;28;1901;-53
2022/09/07 08:39:42;;;;;;;;;;;;;;;16.89;48.11;101388.25;5076429;28;1104;-47
2022/09/07 08:42:20;;;;;;;;;;;;;;;16.85;47.92;101378.84;5076945;28;1021;-53
2022/09/07 08:44:52;;;;;;;;;;;;;;;16.74;47.72;101391.66;5058436;28;1045;-55
2022/09/07 08:47:20;;;;;;;;;;;;;;;16.69;47.52;101386.09;5067866;28;893;-56
2022/09/07 08:49:55;;;;;;;;;;;;;;;16.69;47.48;101389.69;5058425;28;1072;-56
2022/09/07 08:52:22;;;;;;;;;;;;;;;17.62;48.60;101379.44;5076474;28;1024;-55
2022/09/07 08:55:08;;;;;;;;;;;;;;;17.11;49.14;101385.44;5059065;28;1044;-56
2022/09/07 08:57:33;;;;;;;;;;;;;;;16.97;48.58;101390.53;5058273;28;1975;-56
2022/09/07 09:00:03;;;;;;;;;;;;;;;16.83;48.49;101378.25;5055892;28;949;-54
2022/09/07 09:02:29;;;;;;;;;;;;;;;17.16;48.49;101381.88;5073853;28;1258;-54
2022/09/07 09:04:54;;;;;;;;;;;;;;;17.37;49.19;101382.88;5076146;28;847;-52
2022/09/07 09:07:35;;;;;;;;;;;;;;;17.00;49.07;101373.53;5075777;28;1123;-55
2022/09/07 09:10:36;;;;;;;;;;;;;;;17.01;48.43;101374.34;5070699;28;981;-54
2022/09/07 09:13:10;;;;;;;;;;;;;;;16.86;48.12;101366.78;4979028;28;1360;-56
2022/09/07 09:15:35;;;;;;;;;;;;;;;16.87;47.76;101362.91;5054391;28;1156;-55
2022/09/07 09:18:07;;;;;;;;;;;;;;;16.82;47.51;101365.63;5076159;28;1914;-55
2022/09/07 09:20:36;;;;;;;;;;;;;;;16.74;47.52;101356.75;5075751;28;977;-54
2022/09/07 09:23:11;;;;;;;;;;;;;;;16.74;47.28;101359.50;5071357;28;973;-55
2022/09/07 09:25:38;;;;;;;;;;;;;;;17.50;48.57;101352.16;5058720;28;977;-53
2022/09/07 09:28:03;;;;;;;;;;;;;;;17.02;48.86;101362.25;5065533;28;1108;-55
2022/09/07 09:30:30;;;;;;;;;;;;;;;16.95;48.47;101351.47;5075807;28;1065;-55
2022/09/07 09:33:11;;;;;;;;;;;;;;;16.77;48.15;101342.53;5076195;28;1132;-54
2022/09/07 09:35:37;;;;;;;;;;;;;;;16.88;47.84;101348.09;5072699;28;897;-53
2022/09/07 09:38:02;;;;;;;;;;;;;;;16.65;47.86;101349.25;5075882;28;1987;-53
2022/09/07 09:40:32;;;;;;;;;;;;;;;16.70;47.58;101350.13;5075866;28;1009;-52
2022/09/07 09:43:04;;;;;;;;;;;;;;;16.70;47.21;101350.13;5065405;28;978;-53
2022/09/07 09:45:32;;;;;;;;;;;;;;;16.68;47.13;101338.59;5075895;28;1009;-50
2022/09/07 09:47:57;;;;;;;;;;;;;;;17.54;48.15;101349.69;5059862;28;901;-46
2022/09/07 09:50:24;;;;;;;;;;;;;;;16.96;48.74;101342.16;5075649;28;949;-51
2022/09/07 09:52:49;;;;;;;;;;;;;;;16.92;48.52;101347.34;5079613;28;1068;-48
2022/09/07 09:55:19;;;;;;;;;;;;;;;16.82;48.09;101346.41;5081435;28;1139;-49
2022/09/07 09:57:45;;;;;;;;;;;;;;;16.85;47.57;101354.13;5059085;28;1988;-51
2022/09/07 10:00:13;;;;;;;;;;;;;;;16.74;47.58;101343.03;5070804;28;869;-52
2022/09/07 10:02:39;;;;;;;;;;;;;;;17.58;48.02;101345.31;5067812;28;941;-53
2022/09/07 10:05:24;;;;;;;;;;;;;;;17.33;49.14;101340.50;5070080;28;1488;-56
2022/09/07 10:07:50;;;;;;;;;;;;;;;17.12;48.71;101339.53;5056638;28;1237;-48
2022/09/07 10:10:16;;;;;;;;;;;;;;;17.03;48.46;101342.75;5040964;28;1053;-52
2022/09/07 10:12:41;;;;;;;;;;;;;;;16.99;47.97;101344.38;5044354;28;1092;-53
2022/09/07 10:15:07;;;;;;;;;;;;;;;16.87;47.71;101335.44;5058399;28;1175;-52
2022/09/07 10:17:33;;;;;;;;;;;;;;;16.82;47.79;101339.00;5041239;28;1980;-53
2022/09/07 10:20:18;;;;;;;;;;;;;;;16.82;47.36;101332.69;5059000;28;1009;-52
2022/09/07 10:22:44;;;;;;;;;;;;;;;16.76;47.41;101349.09;5059065;28;1005;-51
2022/09/07 10:25:28;;;;;;;;;;;;;;;17.33;48.26;101344.06;5064215;28;1059;-53
2022/09/07 10:28:01;;;;;;;;;;;;;;;17.28;49.06;101341.31;5063816;28;1159;-52
2022/09/07 10:30:26;;;;;;;;;;;;;;;17.14;48.64;101342.84;5056592;28;1080;-54
2022/09/07 10:33:12;;;;;;;;;;;;;;;17.00;48.32;101346.03;5040632;28;1057;-50
2022/09/07 10:35:46;;;;;;;;;;;;;;;16.90;48.01;101338.53;5063198;28;1212;-50
2022/09/07 10:38:14;;;;;;;;;;;;;;;16.87;47.75;101340.94;5040703;28;1973;-51
2022/09/07 10:40:44;;;;;;;;;;;;;;;16.82;47.44;101333.50;5058749;28;1018;-55
2022/09/07 10:43:15;;;;;;;;;;;;;;;16.83;47.32;101337.91;5040706;28;1117;-55
2022/09/07 10:45:59;;;;;;;;;;;;;;;16.70;47.05;101328.16;5058454;28;1009;-48
2022/09/07 10:48:25;;;;;;;;;;;;;;;17.23;48.22;101335.75;5054265;28;973;-50
2022/09/07 10:50:51;;;;;;;;;;;;;;;17.16;48.53;101325.00;5058415;28;1073;-54
2022/09/07 10:53:20;;;;;;;;;;;;;;;16.98;48.37;101331.72;5040709;28;1128;-55
2022/09/07 10:56:14;;;;;;;;;;;;;;;16.99;47.62;101333.38;5058383;28;1115;-55
2022/09/07 10:58:58;;;;;;;;;;;;;;;16.87;47.50;101340.94;5001797;28;1332;-55
2022/09/07 11:01:24;;;;;;;;;;;;;;;16.80;47.47;101330.16;5078072;28;1155;-54
2022/09/07 11:03:52;;;;;;;;;;;;;;;16.84;47.09;101325.00;5078049;28;1151;-55
2022/09/07 11:06:21;;;;;;;;;;;;;;;16.75;47.19;101339.19;5060503;28;1005;-50
2022/09/07 11:08:51;;;;;;;;;;;;;;;17.35;48.49;101324.56;5060436;28;1061;-50
2022/09/07 11:11:17;;;;;;;;;;;;;;;17.01;48.57;101333.97;5076291;28;1047;-53
2022/09/07 11:13:42;;;;;;;;;;;;;;;16.90;48.40;101330.31;5082079;28;1020;-51
2022/09/07 11:16:12;;;;;;;;;;;;;;;16.90;47.74;101333.06;5078658;28;1067;-54
2022/09/07 11:18:49;;;;;;;;;;;;;;;16.86;47.56;101333.81;5078048;28;2011;-53
2022/09/07 11:21:16;;;;;;;;;;;;;;;16.76;47.48;101329.88;5059987;28;1005;-50
2022/09/07 11:23:50;;;;;;;;;;;;;;;16.80;47.10;101324.69;5059356;28;870;-51
2022/09/07 11:26:35;;;;;;;;;;;;;;;16.66;47.47;101324.31;5081996;28;1016;-51
2022/09/07 11:29:07;;;;;;;;;;;;;;;16.72;47.03;101326.00;5055240;28;1001;-52
2022/09/07 11:31:35;;;;;;;;;;;;;;;17.12;48.11;101326.59;5077791;28;1175;-50
2022/09/07 11:34:04;;;;;;;;;;;;;;;17.36;48.91;101316.06;5077712;28;858;-52
2022/09/07 11:36:35;;;;;;;;;;;;;;;17.09;48.63;101311.47;5077580;28;1985;-54
2022/09/07 11:39:05;;;;;;;;;;;;;;;16.91;48.53;101314.63;5059547;28;1069;-51
2022/09/07 11:41:40;;;;;;;;;;;;;;;16.86;48.05;101307.16;5059797;28;1136;-49
2022/09/07 11:44:17;;;;;;;;;;;;;;;16.89;47.78;101303.91;5059191;28;981;-51
2022/09/07 11:46:52;;;;;;;;;;;;;;;16.86;47.30;101306.34;5077480;28;950;-49
2022/09/07 11:49:21;;;;;;;;;;;;;;;16.75;47.42;101303.50;5050368;28;861;-53
2022/09/07 11:51:47;;;;;;;;;;;;;;;16.75;47.17;101300.75;5074804;28;966;-55
2022/09/07 11:54:21;;;;;;;;;;;;;;;17.73;48.41;101306.09;5076866;28;1056;-53
2022/09/07 11:56:49;;;;;;;;;;;;;;;17.17;49.21;101290.13;5076623;28;1910;-51
2022/09/07 11:59:18;;;;;;;;;;;;;;;17.00;48.87;101291.09;5060613;28;1042;-52
2022/09/07 12:01:46;;;;;;;;;;;;;;;16.91;48.22;101285.28;5072412;28;1186;-53
2022/09/07 12:04:24;;;;;;;;;;;;;;;16.78;47.85;101282.94;5075641;28;1083;-51
2022/09/07 12:07:13;;;;;;;;;;;;;;;16.94;47.32;101278.41;5076673;28;1107;-53
2022/09/07 12:09:45;;;;;;;;;;;;;;;17.69;48.51;101283.78;5030031;28;1205;-49
2022/09/07 12:12:23;;;;;;;;;;;;;;;17.18;49.10;101275.25;5053005;28;1041;-48
2022/09/07 12:14:54;;;;;;;;;;;;;;;17.12;48.30;101284.56;5072878;28;1001;-50
2022/09/07 12:17:29;;;;;;;;;;;;;;;17.03;47.92;101279.56;5056680;28;1913;-50
2022/09/07 12:20:14;;;;;;;;;;;;;;;16.88;47.64;101273.94;5058922;28;1072;-46
2022/09/07 12:22:55;;;;;;;;;;;;;;;17.19;48.18;101260.44;5076847;28;1135;-49
2022/09/07 12:25:21;;;;;;;;;;;;;;;17.50;49.25;101277.09;5055530;28;898;-51
2022/09/07 12:27:46;;;;;;;;;;;;;;;17.23;48.96;101267.06;5084214;28;1151;-49
2022/09/07 12:30:11;;;;;;;;;;;;;;;17.04;48.78;101256.50;5076529;28;1278;-48
2022/09/07 12:32:46;;;;;;;;;;;;;;;17.07;48.09;101261.47;5076086;28;977;-51
2022/09/07 12:35:27;;;;;;;;;;;;;;;17.03;47.63;101260.34;5075570;28;942;-50
2022/09/07 12:37:55;;;;;;;;;;;;;;;16.91;47.47;101262.44;5069968;28;1913;-48
2022/09/07 12:40:33;;;;;;;;;;;;;;;16.84;47.35;101272.81;5076484;28;1179;-51
2022/09/07 12:43:11;;;;;;;;;;;;;;;16.91;46.96;101260.53;5071196;28;1292;-49
2022/09/07 12:45:36;;;;;;;;;;;;;;;16.86;46.85;101257.72;5076237;28;1112;-46
2022/09/07 12:48:14;;;;;;;;;;;;;;;16.85;46.71;101260.75;5076321;28;1392;-51
2022/09/07 12:50:48;;;;;;;;;;;;;;;16.63;46.96;101280.88;5077824;28;1110;-47
2022/09/07 12:53:23;;;;;;;;;;;;;;;17.40;48.46;101273.22;5087543;28;1009;-48
2022/09/07 12:55:51;;;;;;;;;;;;;;;17.08;48.45;101260.38;5077322;28;1020;-50